Time;durP1;ratioP1;P1;durP2;ratioP2;P2;SDS_P1;SDS_P2;PMS_P1;PMS_P2;Temp;Humidity;BMP_temperature;BMP_pressure;BME280_temperature;BME280_humidity;BME280_pressure;Samples;Min_cycle;Max_cycle;Signal;HPM_P1;HPM_P2
2022/11/05 00:10:15;;;;;;;11.93;5.03;;;;;;;5.08;100.00;100705.81;7384699;19;20430;-53
2022/11/05 00:18:09;;;;;;;17.47;6.60;;;;;;;5.23;100.00;100716.13;7389473;19;20441;-50
2022/11/05 00:20:39;;;;;;;19.67;6.70;;;;;;;5.30;100.00;100714.84;7384281;19;20952;-53
2022/11/05 00:25:57;;;;;;;10.47;4.60;;;;;;;5.31;100.00;100719.16;7384213;19;20407;-52
2022/11/05 00:28:27;;;;;;;11.10;4.60;;;;;;;5.42;100.00;100714.72;7384932;19;20460;-50
2022/11/05 00:31:01;;;;;;;28.20;7.87;;;;;;;5.50;100.00;100724.63;7381618;19;20433;-53
2022/11/05 00:33:31;;;;;;;24.60;5.00;;;;;;;5.56;100.00;100725.78;7386707;19;20391;-50
2022/11/05 00:36:01;;;;;;;13.57;4.87;;;;;;;5.58;100.00;100726.81;7384694;19;20421;-50
2022/11/05 00:38:33;;;;;;;17.00;5.47;;;;;;;5.61;100.00;100729.53;7385179;19;20414;-55
2022/11/05 00:41:03;;;;;;;13.23;4.70;;;;;;;5.63;100.00;100745.84;7384176;19;20435;-52
2022/11/05 00:46:14;;;;;;;8.93;4.07;;;;;;;5.74;100.00;100751.66;7386417;19;20439;-50
2022/11/05 00:51:26;;;;;;;17.37;4.37;;;;;;;5.81;100.00;100758.94;7386097;19;20429;-49
2022/11/05 00:53:58;;;;;;;16.70;4.23;;;;;;;5.74;100.00;100767.88;7388114;19;20380;-52
2022/11/05 00:56:27;;;;;;;6.80;3.40;;;;;;;5.70;100.00;100775.28;7386970;19;20960;-49
2022/11/05 00:58:57;;;;;;;14.60;3.77;;;;;;;5.78;100.00;100780.09;7386759;19;20510;-53
2022/11/05 01:01:26;;;;;;;18.40;5.30;;;;;;;5.75;100.00;100790.13;7386719;19;20445;-52
2022/11/05 01:03:56;;;;;;;10.63;4.37;;;;;;;5.70;100.00;100789.00;7387442;19;20460;-51
2022/11/05 01:06:25;;;;;;;13.77;4.20;;;;;;;5.74;100.00;100788.38;7385850;19;20438;-49
2022/11/05 01:08:57;;;;;;;15.03;4.40;;;;;;;5.72;100.00;100797.66;7386129;19;20429;-54
2022/11/05 01:11:36;;;;;;;15.37;4.70;;;;;;;5.81;100.00;100803.31;7385933;19;20396;-50
2022/11/05 01:14:08;;;;;;;12.17;3.23;;;;;;;5.75;100.00;100807.19;7388436;19;20399;-53
2022/11/05 01:16:38;;;;;;;12.83;3.87;;;;;;;5.66;100.00;100804.94;7385835;19;20442;-49
2022/11/05 01:19:09;;;;;;;14.63;3.50;;;;;;;5.55;100.00;100806.84;7386284;19;20426;-51
2022/11/05 01:21:39;;;;;;;14.00;4.17;;;;;;;5.47;100.00;100813.13;7385916;19;20409;-50
2022/11/05 01:24:12;;;;;;;12.13;3.67;;;;;;;5.39;100.00;100817.78;7388347;19;20731;-52
2022/11/05 01:26:41;;;;;;;13.17;3.30;;;;;;;5.35;100.00;100821.81;7385158;19;20822;-51
2022/11/05 01:29:12;;;;;;;12.23;3.93;;;;;;;5.32;100.00;100829.28;7389418;19;20427;-50
2022/11/05 01:31:42;;;;;;;14.77;3.80;;;;;;;5.25;100.00;100822.91;7392691;19;20419;-51
2022/11/05 01:34:11;;;;;;;16.60;3.70;;;;;;;5.22;100.00;100826.91;7395642;19;20389;-51
2022/11/05 01:36:41;;;;;;;9.40;3.87;;;;;;;5.19;100.00;100830.19;7392447;19;20418;-53
2022/11/05 01:39:13;;;;;;;16.07;3.90;;;;;;;5.17;100.00;100823.19;7392030;19;20428;-53
2022/11/05 01:41:42;;;;;;;17.67;4.30;;;;;;;5.11;100.00;100831.34;7391867;19;20418;-49
2022/11/05 01:44:41;;;;;;;23.97;4.87;;;;;;;5.07;100.00;100831.94;7395429;19;20388;-53
2022/11/05 01:47:14;;;;;;;14.97;3.90;;;;;;;5.04;100.00;100841.94;7391777;19;20411;-52
2022/11/05 01:49:44;;;;;;;14.40;3.90;;;;;;;5.02;100.00;100839.28;7392880;19;20915;-51
2022/11/05 01:52:13;;;;;;;12.13;4.30;;;;;;;5.03;100.00;100845.31;7392285;19;20521;-50
2022/11/05 01:54:45;;;;;;;14.03;3.60;;;;;;;5.00;100.00;100849.44;7394444;19;20391;-51
2022/11/05 01:57:16;;;;;;;19.20;4.17;;;;;;;4.95;100.00;100848.25;7391637;19;20442;-54
2022/11/05 01:59:49;;;;;;;8.33;4.50;;;;;;;4.94;100.00;100853.25;7393741;19;20427;-52
2022/11/05 02:02:19;;;;;;;14.43;3.57;;;;;;;4.90;100.00;100852.16;7394288;19;20459;-51
2022/11/05 02:04:52;;;;;;;17.00;4.40;;;;;;;4.92;100.00;100849.72;7394398;19;20396;-48
2022/11/05 02:07:22;;;;;;;14.80;4.40;;;;;;;4.93;100.00;100848.94;7394288;19;20406;-51
2022/11/05 02:09:58;;;;;;;14.30;4.47;;;;;;;4.87;100.00;100839.16;7390077;19;20378;-52
2022/11/05 02:12:28;;;;;;;9.73;3.93;;;;;;;4.82;100.00;100845.66;7394806;19;20379;-56
2022/11/05 02:14:58;;;;;;;13.37;3.70;;;;;;;4.80;100.00;100842.09;7392096;19;20767;-50
2022/11/05 02:17:35;;;;;;;12.90;3.90;;;;;;;4.71;100.00;100843.28;7394357;19;20407;-51
2022/11/05 02:20:25;;;;;;;11.73;3.90;;;;;;;4.70;100.00;100841.50;7392231;19;20399;-51
2022/11/05 02:23:23;;;;;;;15.23;4.33;;;;;;;4.67;100.00;100846.41;7394985;19;20388;-51
2022/11/05 02:26:28;;;;;;;16.00;4.53;;;;;;;4.62;100.00;100837.56;7393280;19;20546;-52
2022/11/05 02:29:29;;;;;;;13.00;5.10;;;;;;;4.60;100.00;100834.00;7391791;19;20438;-56
2022/11/05 02:32:03;;;;;;;9.83;4.47;;;;;;;4.60;100.00;100828.88;7391639;19;21004;-51
2022/11/05 02:34:38;;;;;;;16.40;4.07;;;;;;;4.60;100.00;100844.22;7394155;19;20383;-51
2022/11/05 02:37:12;;;;;;;15.87;4.10;;;;;;;4.55;100.00;100831.13;7391417;19;20423;-54
2022/11/05 02:39:47;;;;;;;17.00;4.60;;;;;;;4.51;100.00;100829.13;7388737;19;20839;-54
2022/11/05 02:42:25;;;;;;;9.40;4.47;;;;;;;4.45;100.00;100831.28;7398069;19;20466;-53
2022/11/05 02:45:01;;;;;;;10.37;4.10;;;;;;;4.44;100.00;100835.53;7391451;19;20850;-52
2022/11/05 02:47:39;;;;;;;19.50;3.80;;;;;;;4.45;100.00;100828.72;7393156;19;20415;-54
2022/11/05 02:50:14;;;;;;;12.37;3.90;;;;;;;4.44;100.00;100826.97;7389605;19;20391;-54
2022/11/05 02:52:48;;;;;;;14.07;4.07;;;;;;;4.38;100.00;100826.53;7393745;19;20383;-52
2022/11/05 02:55:23;;;;;;;14.70;4.67;;;;;;;4.37;100.00;100835.00;7391055;19;20411;-50
2022/11/05 02:57:52;;;;;;;11.70;5.30;;;;;;;4.36;100.00;100834.09;7392268;19;20445;-50
2022/11/05 03:00:45;;;;;;;15.33;4.50;;;;;;;4.33;100.00;100833.91;7390884;19;20431;-50
2022/11/05 03:03:21;;;;;;;15.40;4.23;;;;;;;4.30;100.00;100833.69;7393699;19;20371;-50
2022/11/05 03:06:05;;;;;;;15.87;4.60;;;;;;;4.28;100.00;100836.16;7390250;19;20411;-50
2022/11/05 03:08:45;;;;;;;15.80;4.00;;;;;;;4.22;100.00;100827.16;7390769;19;20398;-49
2022/11/05 03:11:16;;;;;;;21.67;4.50;;;;;;;4.24;100.00;100828.16;7390177;19;20415;-50
2022/11/05 03:13:52;;;;;;;25.33;5.47;;;;;;;4.22;100.00;100830.63;7392530;19;20948;-54
2022/11/05 03:16:24;;;;;;;9.63;3.67;;;;;;;4.16;100.00;100820.84;7389987;19;20407;-50
2022/11/05 03:19:01;;;;;;;20.63;4.80;;;;;;;4.16;100.00;100828.50;7390436;19;20456;-53
2022/11/05 03:21:38;;;;;;;16.03;4.50;;;;;;;4.18;100.00;100833.72;7390150;19;20411;-52
2022/11/05 03:24:12;;;;;;;12.23;4.10;;;;;;;4.18;100.00;100833.72;7392196;19;20403;-56
2022/11/05 03:26:43;;;;;;;14.10;4.40;;;;;;;4.14;100.00;100836.84;7389140;19;20415;-54
2022/11/05 03:29:21;;;;;;;13.57;3.70;;;;;;;4.10;100.00;100845.97;7389626;19;20828;-51
2022/11/05 03:31:51;;;;;;;18.80;4.13;;;;;;;4.11;100.00;100841.75;7390265;19;20435;-52
2022/11/05 03:34:28;;;;;;;17.63;4.33;;;;;;;4.07;100.00;100843.22;7394619;19;20392;-54
2022/11/05 03:36:58;;;;;;;13.23;3.97;;;;;;;4.12;100.00;100843.53;7389286;19;20419;-52
2022/11/05 03:39:31;;;;;;;10.70;3.87;;;;;;;4.12;100.00;100849.53;7389895;19;20507;-52
2022/11/05 03:42:01;;;;;;;11.63;4.00;;;;;;;4.07;100.00;100848.31;7388910;19;20411;-51
2022/11/05 03:44:36;;;;;;;21.50;4.50;;;;;;;4.06;100.00;100849.09;7391726;19;20388;-51
2022/11/05 03:47:07;;;;;;;11.10;3.20;;;;;;;4.08;100.00;100851.75;7389088;19;20394;-50
2022/11/05 03:49:44;;;;;;;10.70;4.37;;;;;;;4.11;100.00;100851.97;7390113;19;20823;-52
2022/11/05 03:52:17;;;;;;;18.43;4.50;;;;;;;4.10;100.00;100862.97;7386814;19;20533;-53
2022/11/05 03:54:47;;;;;;;10.07;3.70;;;;;;;4.10;100.00;100856.19;7390993;19;20403;-55
2022/11/05 03:57:21;;;;;;;13.30;3.33;;;;;;;4.05;100.00;100853.31;7390524;19;20819;-52
2022/11/05 03:59:52;;;;;;;10.70;3.70;;;;;;;4.07;100.00;100862.75;7391049;19;20424;-52
2022/11/05 04:02:24;;;;;;;12.80;3.60;;;;;;;4.08;100.00;100867.06;7390391;19;20436;-52
2022/11/05 04:04:56;;;;;;;13.30;3.53;;;;;;;4.07;100.00;100876.41;7388382;19;20459;-50
2022/11/05 04:17:05;;;;;;;10.97;4.10;;;;;;;4.06;100.00;100882.31;7389929;19;20903;-53
2022/11/05 04:18:19;;;;;;;11.27;3.70;;;;;;;4.13;100.00;100892.16;7389298;19;20463;-56
2022/11/05 04:26:15;;;;;;;18.53;4.10;;;;;;;3.99;100.00;100911.63;7388195;19;20399;-52
2022/11/05 04:31:26;;;;;;;14.37;3.80;;;;;;;4.00;100.00;100922.72;7384834;19;20406;-53
2022/11/05 04:33:55;;;;;;;13.10;3.40;;;;;;;3.97;100.00;100925.03;7394102;19;20374;-51
2022/11/05 04:36:27;;;;;;;8.40;3.97;;;;;;;3.97;100.00;100925.94;7387454;19;20773;-52
2022/11/05 04:38:56;;;;;;;14.83;4.80;;;;;;;3.91;100.00;100928.06;7387857;19;20419;-52
2022/11/05 04:41:26;;;;;;;8.80;3.80;;;;;;;3.92;100.00;100938.38;7388405;19;20475;-51
2022/11/05 04:43:55;;;;;;;14.13;4.30;;;;;;;3.96;100.00;100933.50;7394419;19;20375;-51
2022/11/05 04:46:25;;;;;;;17.70;4.20;;;;;;;4.01;100.00;100933.03;7387203;19;20432;-52
2022/11/05 04:48:54;;;;;;;13.40;3.50;;;;;;;3.99;100.00;100933.72;7387494;19;20439;-51
2022/11/05 04:51:23;;;;;;;13.07;3.53;;;;;;;4.00;100.00;100928.69;7386689;19;20793;-49
2022/11/05 04:53:56;;;;;;;13.83;4.10;;;;;;;4.02;100.00;100939.03;7389331;19;20395;-52
2022/11/05 04:56:26;;;;;;;12.63;4.30;;;;;;;4.03;100.00;100933.16;7387121;19;20412;-55
2022/11/05 04:58:55;;;;;;;12.50;4.30;;;;;;;4.01;100.00;100937.25;7387659;19;20402;-54
2022/11/05 05:01:26;;;;;;;12.80;3.93;;;;;;;3.97;100.00;100946.38;7386764;19;20977;-51
2022/11/05 05:03:56;;;;;;;13.20;4.07;;;;;;;3.98;100.00;100947.25;7395990;19;20362;-52
2022/11/05 05:06:25;;;;;;;16.70;3.70;;;;;;;3.99;100.00;100949.03;7396892;19;20438;-52
2022/11/05 05:08:57;;;;;;;13.37;4.00;;;;;;;3.98;100.00;100947.25;7393928;19;20423;-50
2022/11/05 05:11:27;;;;;;;14.20;3.60;;;;;;;3.99;100.00;100949.91;7394599;19;20386;-51
2022/11/05 05:13:56;;;;;;;9.40;4.10;;;;;;;3.99;100.00;100949.03;7396595;19;20753;-51
2022/11/05 05:16:27;;;;;;;13.17;4.67;;;;;;;3.97;100.00;100955.69;7394228;19;20438;-53
2022/11/05 05:18:56;;;;;;;14.47;4.30;;;;;;;3.98;100.00;100955.81;7393681;19;20394;-52
2022/11/05 05:21:38;;;;;;;10.87;4.13;;;;;;;4.02;100.00;100946.69;7393991;19;20414;-51
2022/11/05 05:24:13;;;;;;;14.23;4.63;;;;;;;3.95;100.00;100940.25;7396382;19;20475;-53
2022/11/05 05:26:45;;;;;;;13.50;4.33;;;;;;;3.96;100.00;100943.69;7393181;19;20410;-55
2022/11/05 05:29:17;;;;;;;13.10;3.93;;;;;;;3.96;100.00;100943.69;7393609;19;20444;-50
2022/11/05 05:31:47;;;;;;;12.63;3.90;;;;;;;3.98;100.00;100949.78;7390762;19;20469;-50
2022/11/05 05:34:16;;;;;;;11.07;4.63;;;;;;;3.96;100.00;100953.91;7396048;19;20398;-48
2022/11/05 05:36:46;;;;;;;11.30;4.17;;;;;;;3.92;100.00;100956.25;7393177;19;20423;-55
2022/11/05 05:39:18;;;;;;;9.33;3.97;;;;;;;3.90;100.00;100954.38;7392816;19;20424;-53
2022/11/05 05:41:47;;;;;;;9.73;4.13;;;;;;;3.89;100.00;100963.69;7393119;19;20416;-50
2022/11/05 05:44:17;;;;;;;12.47;5.00;;;;;;;3.97;100.00;100963.34;7395591;19;20399;-53
2022/11/05 05:46:46;;;;;;;11.03;4.20;;;;;;;3.94;100.00;100960.59;7392713;19;20443;-51
2022/11/05 05:49:16;;;;;;;7.47;3.50;;;;;;;3.90;100.00;100965.47;7392883;19;20979;-54
2022/11/05 05:51:45;;;;;;;19.03;3.97;;;;;;;3.92;100.00;100969.03;7391121;19;20458;-50
2022/11/05 05:54:14;;;;;;;16.13;3.87;;;;;;;3.92;100.00;100979.25;7395305;19;20436;-52
2022/11/05 05:56:47;;;;;;;11.37;3.97;;;;;;;3.97;100.00;100982.13;7392457;19;20407;-50
2022/11/05 05:59:16;;;;;;;13.50;4.13;;;;;;;3.97;100.00;100988.88;7392269;19;20443;-53
2022/11/05 06:01:46;;;;;;;17.43;5.50;;;;;;;3.97;100.00;100994.88;7392184;19;20419;-52
2022/11/05 06:04:15;;;;;;;12.60;4.40;;;;;;;4.02;100.00;100996.13;7396275;19;20413;-50
2022/11/05 06:06:46;;;;;;;11.27;3.63;;;;;;;3.99;100.00;100995.00;7392384;19;20963;-56
2022/11/05 06:09:16;;;;;;;12.17;4.27;;;;;;;4.05;100.00;100995.41;7393000;19;20951;-55
2022/11/05 06:11:47;;;;;;;10.63;4.00;;;;;;;4.02;100.00;101010.53;7390460;19;20446;-54
2022/11/05 06:14:17;;;;;;;11.37;3.67;;;;;;;4.02;100.00;101007.97;7394181;19;20387;-50
2022/11/05 06:16:46;;;;;;;17.03;4.30;;;;;;;4.01;100.00;101013.88;7391744;19;20776;-50
2022/11/05 06:19:16;;;;;;;10.33;4.27;;;;;;;4.02;100.00;101020.75;7392492;19;20956;-52
2022/11/05 06:21:45;;;;;;;13.27;4.33;;;;;;;3.98;100.00;101024.75;7391756;19;20450;-51
2022/11/05 06:24:15;;;;;;;13.93;4.57;;;;;;;4.00;100.00;101028.28;7394050;19;20388;-51
2022/11/05 06:26:44;;;;;;;12.90;3.90;;;;;;;4.05;100.00;101026.06;7390762;19;20439;-52
2022/11/05 06:29:16;;;;;;;10.07;3.90;;;;;;;4.03;100.00;101020.88;7391595;19;20451;-55
2022/11/05 06:31:46;;;;;;;8.87;3.53;;;;;;;4.03;100.00;101019.97;7390338;19;20435;-54
2022/11/05 06:34:15;;;;;;;19.80;5.37;;;;;;;4.06;100.00;101027.88;7393826;19;20417;-50
2022/11/05 06:36:44;;;;;;;14.30;4.20;;;;;;;4.02;100.00;101036.97;7391402;19;20423;-51
2022/11/05 06:39:14;;;;;;;9.93;4.30;;;;;;;4.07;100.00;101044.97;7391169;19;20455;-56
2022/11/05 06:41:45;;;;;;;10.57;2.93;;;;;;;4.13;100.00;101047.06;7390222;19;20415;-54
2022/11/05 06:44:36;;;;;;;13.27;3.73;;;;;;;4.12;100.00;101046.19;7396568;19;20391;-53
2022/11/05 06:47:06;;;;;;;14.10;3.97;;;;;;;4.09;100.00;101045.94;7390527;19;20453;-50
2022/11/05 06:49:35;;;;;;;9.23;3.67;;;;;;;4.08;100.00;101045.81;7390317;19;20921;-50
2022/11/05 06:52:05;;;;;;;8.33;3.47;;;;;;;4.12;100.00;101053.84;7389430;19;20452;-52
2022/11/05 06:54:34;;;;;;;10.00;3.60;;;;;;;4.14;100.00;101054.84;7393078;19;20462;-55
2022/11/05 06:57:05;;;;;;;8.83;3.70;;;;;;;4.14;100.00;101059.94;7390591;19;20407;-53
2022/11/05 06:59:37;;;;;;;10.87;3.53;;;;;;;4.21;100.00;101060.38;7390517;19;20431;-52
2022/11/05 07:02:06;;;;;;;17.47;3.97;;;;;;;4.23;100.00;101057.16;7390303;19;20444;-52
2022/11/05 07:04:36;;;;;;;13.33;3.70;;;;;;;4.27;100.00;101058.28;7393144;19;20393;-51
2022/11/05 07:07:05;;;;;;;6.33;3.00;;;;;;;4.33;100.00;101063.81;7390053;19;20769;-51
2022/11/05 07:09:37;;;;;;;6.37;2.90;;;;;;;4.32;100.00;101067.16;7389927;19;20427;-50
2022/11/05 07:12:07;;;;;;;13.30;3.50;;;;;;;4.37;100.00;101070.94;7388829;19;20431;-52
2022/11/05 07:14:39;;;;;;;8.27;3.07;;;;;;;4.41;100.00;101072.94;7392139;19;20761;-54
2022/11/05 07:17:08;;;;;;;20.20;3.73;;;;;;;4.49;100.00;101070.94;7389578;19;20976;-51
2022/11/05 07:19:38;;;;;;;8.00;3.40;;;;;;;4.51;100.00;101071.91;7391696;19;20411;-54
2022/11/05 07:22:07;;;;;;;11.90;3.33;;;;;;;4.51;100.00;101078.72;7389992;19;20455;-55
2022/11/05 07:24:37;;;;;;;12.10;3.73;;;;;;;4.53;100.00;101080.59;7392116;19;20412;-50
2022/11/05 07:27:06;;;;;;;8.13;3.80;;;;;;;4.61;100.00;101081.13;7389186;19;20435;-51
2022/11/05 07:29:38;;;;;;;9.17;3.70;;;;;;;4.65;100.00;101079.66;7389343;19;20406;-51
2022/11/05 07:32:08;;;;;;;6.73;3.20;;;;;;;4.72;100.00;101085.34;7388721;19;20819;-56
2022/11/05 07:34:37;;;;;;;12.20;3.20;;;;;;;4.78;100.00;101099.34;7391895;19;20391;-52
2022/11/05 07:37:07;;;;;;;7.07;3.70;;;;;;;4.77;100.00;101100.13;7389683;19;20439;-51
2022/11/05 07:39:36;;;;;;;12.07;4.30;;;;;;;4.83;100.00;101100.56;7389293;19;20435;-55
2022/11/05 07:42:06;;;;;;;20.27;4.80;;;;;;;4.88;100.00;101113.66;7389288;19;20427;-51
2022/11/05 07:44:35;;;;;;;9.17;3.50;;;;;;;4.95;100.00;101109.09;7391346;19;20746;-51
2022/11/05 07:47:07;;;;;;;7.87;3.40;;;;;;;4.99;100.00;101113.63;7388533;19;20488;-53
2022/11/05 07:49:36;;;;;;;12.80;4.60;;;;;;;5.04;100.00;101118.19;7388710;19;20419;-53
2022/11/05 07:52:06;;;;;;;13.00;3.40;;;;;;;5.13;100.00;101123.94;7387899;19;20966;-51
2022/11/05 07:54:36;;;;;;;14.90;3.70;;;;;;;5.21;100.00;101137.25;7391070;19;20428;-51
2022/11/05 07:57:05;;;;;;;10.60;3.67;;;;;;;5.22;100.00;101132.25;7388988;19;20411;-53
2022/11/05 07:59:35;;;;;;;11.23;4.47;;;;;;;5.25;100.00;101137.59;7388511;19;20456;-51
2022/11/05 08:02:08;;;;;;;11.80;3.33;;;;;;;5.31;100.00;101149.00;7388674;19;20456;-51
2022/11/05 08:04:39;;;;;;;17.37;3.67;;;;;;;5.42;100.00;101145.53;7391033;19;20397;-50
2022/11/05 08:07:08;;;;;;;13.10;2.93;;;;;;;5.46;100.00;101144.97;7387746;19;20411;-52
2022/11/05 08:09:39;;;;;;;10.20;3.60;;;;;;;5.53;100.00;101142.03;7389665;19;20969;-51
2022/11/05 08:12:09;;;;;;;8.93;3.47;;;;;;;5.61;100.00;101129.78;7391393;19;20492;-48
2022/11/05 08:14:38;;;;;;;4.87;2.83;;;;;;;5.67;100.00;101131.84;7390428;19;20376;-48
2022/11/05 08:17:10;;;;;;;10.43;3.60;;;;;;;5.73;100.00;101134.81;7390068;19;20443;-51
2022/11/05 08:19:46;;;;;;;7.27;2.77;;;;;;;5.80;100.00;101139.56;7389818;19;20391;-50
2022/11/05 08:22:16;;;;;;;11.03;3.50;;;;;;;5.89;100.00;101136.75;7388491;19;20412;-49
2022/11/05 08:24:45;;;;;;;7.20;3.10;;;;;;;5.97;100.00;101150.06;7394280;19;20388;-46
2022/11/05 08:27:15;;;;;;;10.33;3.63;;;;;;;6.05;100.00;101148.94;7387427;19;20447;-52
2022/11/05 08:29:45;;;;;;;8.60;2.60;;;;;;;6.11;100.00;101157.81;7391044;19;20426;-48
2022/11/05 08:32:17;;;;;;;10.70;3.83;;;;;;;6.19;100.00;101156.63;7391068;19;20455;-52
2022/11/05 08:34:46;;;;;;;12.90;2.80;;;;;;;6.19;100.00;101159.19;7391511;19;20416;-50
2022/11/05 08:37:16;;;;;;;6.17;2.63;;;;;;;6.33;100.00;101155.88;7386053;19;20456;-51
2022/11/05 08:39:46;;;;;;;7.43;2.73;;;;;;;6.37;100.00;101156.97;7391859;19;20376;-48
2022/11/05 08:42:15;;;;;;;11.60;4.03;;;;;;;6.48;100.00;101155.09;7391318;19;20503;-52
2022/11/05 08:44:45;;;;;;;11.27;2.70;;;;;;;6.46;100.00;101160.13;7393323;19;20399;-50
2022/11/05 08:47:17;;;;;;;11.07;2.87;;;;;;;6.52;100.00;101162.22;7386789;19;20420;-52
2022/11/05 08:49:46;;;;;;;7.90;2.20;;;;;;;6.55;100.00;101164.97;7388741;19;20392;-50
2022/11/05 08:52:16;;;;;;;8.63;2.90;;;;;;;6.64;100.00;101163.75;7388210;19;20439;-52
2022/11/05 08:54:45;;;;;;;7.13;2.77;;;;;;;6.63;100.00;101170.59;7389096;19;20393;-50
2022/11/05 08:57:15;;;;;;;6.83;2.40;;;;;;;6.71;100.00;101176.19;7386403;19;20970;-51
2022/11/05 08:59:45;;;;;;;8.00;3.03;;;;;;;6.84;100.00;101173.66;7388659;19;20759;-50
2022/11/05 09:02:17;;;;;;;6.13;2.57;;;;;;;6.82;100.00;101180.34;7386497;19;20408;-51
2022/11/05 09:04:46;;;;;;;6.97;2.70;;;;;;;6.84;100.00;101176.22;7388948;19;20465;-47
2022/11/05 09:07:16;;;;;;;15.53;3.80;;;;;;;7.02;100.00;101175.56;7387259;19;20427;-53
2022/11/05 09:09:45;;;;;;;7.27;2.40;;;;;;;7.10;100.00;101173.50;7388157;19;20389;-49
2022/11/05 09:12:15;;;;;;;7.30;2.40;;;;;;;7.11;100.00;101173.59;7386059;19;20416;-49
2022/11/05 09:14:44;;;;;;;9.30;3.60;;;;;;;7.15;100.00;101173.00;7388401;19;20891;-49
2022/11/05 09:17:20;;;;;;;7.37;2.60;;;;;;;7.22;100.00;101173.41;7389186;19;20469;-54
2022/11/05 09:19:50;;;;;;;9.70;2.30;;;;;;;7.19;100.00;101175.75;7387729;19;20383;-49
2022/11/05 09:22:20;;;;;;;5.13;2.60;;;;;;;7.31;100.00;101184.22;7388048;19;20794;-48
2022/11/05 09:24:49;;;;;;;12.33;2.73;;;;;;;7.49;100.00;101179.31;7388944;19;20415;-48
2022/11/05 09:27:19;;;;;;;8.07;2.70;;;;;;;7.51;100.00;101185.44;7387016;19;20442;-48
2022/11/05 09:29:49;;;;;;;13.77;3.57;;;;;;;7.54;100.00;101189.88;7385906;19;20949;-48
2022/11/05 09:32:22;;;;;;;8.90;2.53;;;;;;;7.75;100.00;101192.84;7387827;19;20945;-53
2022/11/05 09:34:51;;;;;;;8.00;2.80;;;;;;;7.62;100.00;101201.50;7385817;19;20360;-53
2022/11/05 09:37:21;;;;;;;7.87;2.20;;;;;;;7.70;100.00;101200.28;7387856;19;20387;-50
2022/11/05 09:39:51;;;;;;;15.07;2.40;;;;;;;7.71;100.00;101196.03;7387717;19;20412;-52
2022/11/05 09:42:21;;;;;;;10.37;2.60;;;;;;;7.86;100.00;101201.22;7387499;19;20417;-53
2022/11/05 09:44:54;;;;;;;7.97;2.30;;;;;;;7.87;100.00;101207.22;7385004;19;20378;-51
2022/11/05 09:47:30;;;;;;;11.67;2.10;;;;;;;7.98;100.00;101206.19;7387556;19;20414;-51
2022/11/05 09:50:02;;;;;;;6.30;2.07;;;;;;;8.18;100.00;101209.06;7388587;19;20769;-48
2022/11/05 09:52:33;;;;;;;4.67;1.80;;;;;;;8.16;100.00;101201.25;7395277;19;21271;-51
2022/11/05 09:55:05;;;;;;;4.80;1.60;;;;;;;8.38;100.00;101208.53;7396518;19;20403;-49
2022/11/05 09:57:44;;;;;;;8.13;3.00;;;;;;;8.34;100.00;101221.13;7394496;19;20395;-50
2022/11/05 10:00:16;;;;;;;9.67;2.07;;;;;;;8.27;100.00;101214.75;7391845;19;20409;-53
2022/11/05 10:02:52;;;;;;;7.30;1.63;;;;;;;8.34;100.00;101218.53;7397745;19;20411;-50
2022/11/05 10:05:22;;;;;;;6.77;2.30;;;;;;;8.37;100.00;101226.47;7392024;19;20431;-50
2022/11/05 10:07:55;;;;;;;8.10;2.07;;;;;;;8.38;100.00;101228.22;7394388;19;20392;-47
2022/11/05 10:10:36;;;;;;;6.90;2.07;;;;;;;8.48;100.00;101227.06;7391409;19;20407;-48
2022/11/05 10:13:19;;;;;;;8.40;2.53;;;;;;;8.58;100.00;101229.41;7394279;19;20396;-50
2022/11/05 10:15:55;;;;;;;6.90;1.90;;;;;;;8.83;100.00;101211.91;7393411;19;20435;-51
2022/11/05 10:18:30;;;;;;;6.30;1.80;;;;;;;8.76;100.00;101216.69;7392867;19;20458;-48
2022/11/05 10:21:00;;;;;;;5.43;1.90;;;;;;;8.69;100.00;101230.03;7392154;19;20406;-52
2022/11/05 10:23:30;;;;;;;12.80;2.30;;;;;;;8.86;100.00;101227.50;7394090;19;20417;-48
2022/11/05 10:26:03;;;;;;;5.73;1.50;;;;;;;8.91;100.00;101226.06;7391078;19;20766;-52
2022/11/05 10:28:34;;;;;;;5.90;1.67;;;;;;;8.98;100.00;101241.06;7391702;19;20423;-51
2022/11/05 10:31:06;;;;;;;4.10;1.43;;;;;;;8.96;100.00;101240.09;7391588;19;20419;-54
2022/11/05 10:33:43;;;;;;;4.40;1.70;;;;;;;9.08;100.00;101245.03;7394152;19;20407;-49
2022/11/05 10:36:15;;;;;;;7.50;1.50;;;;;;;9.07;100.00;101243.25;7391079;19;20521;-47
2022/11/05 10:38:45;;;;;;;6.97;1.40;;;;;;;9.15;100.00;101244.59;7391795;19;20427;-50
2022/11/05 10:41:30;;;;;;;6.63;1.90;;;;;;;9.22;100.00;101247.50;7392230;19;20966;-49
2022/11/05 10:44:07;;;;;;;3.70;1.50;;;;;;;9.34;100.00;101255.00;7390886;19;20390;-48
2022/11/05 10:46:40;;;;;;;7.57;1.67;;;;;;;9.40;100.00;101242.47;7390758;19;20410;-51
2022/11/05 10:49:20;;;;;;;11.07;1.30;;;;;;;9.47;100.00;101247.16;7390962;19;20452;-52
2022/11/05 10:51:57;;;;;;;3.77;1.03;;;;;;;9.43;100.00;101247.78;7392442;19;20659;-50
2022/11/05 10:54:33;;;;;;;5.83;1.40;;;;;;;9.54;100.00;101251.81;7391754;19;20940;-50
2022/11/05 10:57:02;;;;;;;6.00;1.70;;;;;;;9.52;100.00;101250.84;7390176;19;20418;-49
2022/11/05 10:59:32;;;;;;;4.17;1.27;;;;;;;9.45;100.00;101259.94;7390253;19;20450;-49
2022/11/05 11:02:03;;;;;;;6.93;1.80;;;;;;;9.73;100.00;101255.38;7389707;19;20403;-52
2022/11/05 11:04:36;;;;;;;5.50;1.70;;;;;;;9.83;100.00;101244.75;7393024;19;20394;-51
2022/11/05 11:07:06;;;;;;;7.13;1.83;;;;;;;9.57;100.00;101254.56;7390112;19;20755;-51
2022/11/05 11:09:38;;;;;;;10.37;1.70;;;;;;;9.70;100.00;101247.50;7390387;19;20423;-50
2022/11/05 11:12:15;;;;;;;7.80;1.67;;;;;;;9.89;100.00;101248.47;7390822;19;20772;-49
2022/11/05 11:14:51;;;;;;;7.63;1.97;;;;;;;9.84;100.00;101250.78;7391193;19;20388;-48
2022/11/05 11:17:28;;;;;;;6.90;1.93;;;;;;;9.92;100.00;101240.88;7395672;19;21012;-50
2022/11/05 11:20:21;;;;;;;11.43;2.50;;;;;;;9.98;100.00;101238.63;7389243;19;20383;-49
2022/11/05 11:23:12;;;;;;;6.03;1.63;;;;;;;10.26;100.00;101247.81;7392245;19;20424;-52
2022/11/05 11:25:48;;;;;;;5.83;1.53;;;;;;;10.11;100.00;101251.34;7389762;19;20499;-48
2022/11/05 11:28:22;;;;;;;6.83;1.33;;;;;;;10.05;100.00;101248.44;7389096;19;21018;-52
2022/11/05 11:30:54;;;;;;;3.20;1.33;;;;;;;9.96;100.00;101251.44;7392376;19;20995;-53
2022/11/05 11:33:27;;;;;;;4.07;1.33;;;;;;;10.12;100.00;101253.09;7394048;19;20410;-51
2022/11/05 11:36:00;;;;;;;6.93;1.80;;;;;;;10.04;100.00;101256.13;7389612;19;20423;-51
2022/11/05 11:38:32;;;;;;;5.67;1.50;;;;;;;9.96;100.00;101263.44;7390086;19;20745;-48
2022/11/05 11:41:07;;;;;;;6.27;1.07;;;;;;;9.97;100.00;101262.66;7389688;19;20451;-49
2022/11/05 11:43:39;;;;;;;6.83;2.70;;;;;;;10.20;100.00;101260.38;7391782;19;20387;-49
2022/11/05 11:46:14;;;;;;;4.17;1.70;;;;;;;10.32;100.00;101258.44;7389162;19;20447;-55
2022/11/05 11:48:48;;;;;;;5.37;0.90;;;;;;;10.13;100.00;101267.81;7390109;19;20407;-54
2022/11/05 11:51:31;;;;;;;6.00;1.37;;;;;;;10.21;100.00;101260.44;7389079;19;20442;-48
2022/11/05 11:54:01;;;;;;;9.73;1.60;;;;;;;10.47;100.00;101254.88;7391469;19;20383;-55
2022/11/05 11:56:31;;;;;;;4.50;1.20;;;;;;;10.34;100.00;101261.06;7388923;19;20443;-53
2022/11/05 11:59:04;;;;;;;5.10;1.80;;;;;;;10.21;100.00;101262.16;7389889;19;20415;-52
2022/11/05 12:02:07;;;;;;;9.47;1.50;;;;;;;10.22;100.00;101264.81;7388926;19;20816;-48
2022/11/05 12:04:57;;;;;;;5.17;1.57;;;;;;;10.33;100.00;101267.94;7387376;19;20387;-50
2022/11/05 12:07:41;;;;;;;4.90;1.67;;;;;;;10.39;100.00;101272.50;7390181;19;20987;-53
2022/11/05 12:10:22;;;;;;;9.83;1.63;;;;;;;10.40;100.00;101264.84;7387845;19;20416;-54
2022/11/05 12:13:04;;;;;;;7.40;1.53;;;;;;;10.34;100.00;101274.84;7389149;19;20383;-49
2022/11/05 12:15:43;;;;;;;5.87;2.03;;;;;;;10.57;100.00;101267.44;7387278;19;21132;-50
2022/11/05 12:18:17;;;;;;;6.23;1.60;;;;;;;10.45;100.00;101277.16;7390364;19;21010;-57
2022/11/05 12:20:59;;;;;;;4.00;1.70;;;;;;;10.55;100.00;101279.34;7390980;19;20443;-50
2022/11/05 12:23:42;;;;;;;4.90;1.70;;;;;;;10.70;100.00;101278.34;7392839;19;20395;-53